sensor_id;sensor_type;location;lat;lon;timestamp;pressure;altitude;pressure_sealevel;temperature;humidity
14041;BME280;7095;51.388;6.196;2023-03-03T00:00:39;65558.22;;;-145.32;100.00
14041;BME280;7095;51.388;6.196;2023-03-03T00:03:09;66206.69;;;-145.32;100.00
14041;BME280;7095;51.388;6.196;2023-03-03T00:05:39;66979.03;;;-145.32;100.00
14041;BME280;7095;51.388;6.196;2023-03-03T00:08:08;67827.44;;;-145.32;100.00
14041;BME280;7095;51.388;6.196;2023-03-03T00:10:37;68763.91;;;-145.32;100.00
14041;BME280;7095;51.388;6.196;2023-03-03T00:13:12;69568.78;;;-145.32;100.00
14041;BME280;7095;51.388;6.196;2023-03-03T00:15:44;70164.06;;;-145.32;100.00
14041;BME280;7095;51.388;6.196;2023-03-03T00:18:20;70931.31;;;-145.32;100.00
14041;BME280;7095;51.388;6.196;2023-03-03T00:20:52;71954.59;;;-145.32;100.00
14041;BME280;7095;51.388;6.196;2023-03-03T00:23:29;72978.16;;;-145.32;100.00
14041;BME280;7095;51.388;6.196;2023-03-03T00:25:58;73746.06;;;-145.32;100.00
14041;BME280;7095;51.388;6.196;2023-03-03T00:28:28;74002.03;;;-145.32;100.00
14041;BME280;7095;51.388;6.196;2023-03-03T00:31:00;75026.22;;;-145.32;100.00
14041;BME280;7095;51.388;6.196;2023-03-03T00:33:31;76050.72;;;-145.32;100.00
14041;BME280;7095;51.388;6.196;2023-03-03T00:38:49;76819.28;;;-145.32;100.00
14041;BME280;7095;51.388;6.196;2023-03-03T00:41:20;76563.09;;;-145.32;100.00
14041;BME280;7095;51.388;6.196;2023-03-03T00:43:51;76819.28;;;-145.32;100.00
14041;BME280;7095;51.388;6.196;2023-03-03T00:46:21;77588.03;;;-145.32;100.00
14041;BME280;7095;51.388;6.196;2023-03-03T00:48:51;77075.53;;;-145.32;100.00
14041;BME280;7095;51.388;6.196;2023-03-03T00:51:26;77075.53;;;-145.32;100.00
14041;BME280;7095;51.388;6.196;2023-03-03T00:53:57;77588.03;;;-145.32;100.00
14041;BME280;7095;51.388;6.196;2023-03-03T00:56:25;77844.31;;;-145.32;100.00
14041;BME280;7095;51.388;6.196;2023-03-03T00:58:55;77588.03;;;-145.32;100.00
14041;BME280;7095;51.388;6.196;2023-03-03T01:01:27;77331.78;;;-145.32;100.00
14041;BME280;7095;51.388;6.196;2023-03-03T01:03:55;78100.63;;;-145.32;100.00
14041;BME280;7095;51.388;6.196;2023-03-03T01:06:24;78100.63;;;-145.32;100.00
14041;BME280;7095;51.388;6.196;2023-03-03T01:08:53;78356.94;;;-145.32;100.00
14041;BME280;7095;51.388;6.196;2023-03-03T01:11:25;78613.28;;;-145.32;100.00
14041;BME280;7095;51.388;6.196;2023-03-03T01:13:55;78869.66;;;-145.32;100.00
14041;BME280;7095;51.388;6.196;2023-03-03T01:16:27;78613.28;;;-145.32;100.00
14041;BME280;7095;51.388;6.196;2023-03-03T01:18:56;78613.28;;;-145.32;100.00
14041;BME280;7095;51.388;6.196;2023-03-03T01:21:24;78356.94;;;-145.32;100.00
14041;BME280;7095;51.388;6.196;2023-03-03T01:23:53;78356.94;;;-145.32;100.00
14041;BME280;7095;51.388;6.196;2023-03-03T01:26:21;78869.66;;;-145.32;100.00
14041;BME280;7095;51.388;6.196;2023-03-03T01:28:50;79126.03;;;-145.32;100.00
14041;BME280;7095;51.388;6.196;2023-03-03T01:31:18;78869.66;;;-145.32;100.00
14041;BME280;7095;51.388;6.196;2023-03-03T01:33:48;78869.66;;;-145.32;100.00
14041;BME280;7095;51.388;6.196;2023-03-03T01:36:22;78869.66;;;-145.32;100.00
14041;BME280;7095;51.388;6.196;2023-03-03T01:38:51;78613.28;;;-145.32;100.00
14041;BME280;7095;51.388;6.196;2023-03-03T01:41:19;78356.94;;;-145.32;100.00
14041;BME280;7095;51.388;6.196;2023-03-03T01:43:49;79126.03;;;-145.32;100.00
14041;BME280;7095;51.388;6.196;2023-03-03T01:46:36;79638.84;;;-145.32;100.00
14041;BME280;7095;51.388;6.196;2023-03-03T01:49:13;79126.03;;;-145.32;100.00
14041;BME280;7095;51.388;6.196;2023-03-03T01:51:47;79126.03;;;-145.32;100.00
14041;BME280;7095;51.388;6.196;2023-03-03T01:54:20;79126.03;;;-145.32;100.00
14041;BME280;7095;51.388;6.196;2023-03-03T01:56:53;79382.44;;;-145.32;100.00
14041;BME280;7095;51.388;6.196;2023-03-03T01:59:25;79126.03;;;-145.32;100.00
14041;BME280;7095;51.388;6.196;2023-03-03T02:01:56;78869.66;;;-145.32;100.00
14041;BME280;7095;51.388;6.196;2023-03-03T02:04:26;78613.28;;;-145.32;100.00
14041;BME280;7095;51.388;6.196;2023-03-03T02:06:58;79126.03;;;-145.32;100.00
14041;BME280;7095;51.388;6.196;2023-03-03T02:09:33;79382.44;;;-145.32;100.00
14041;BME280;7095;51.388;6.196;2023-03-03T02:12:11;79638.84;;;-145.32;100.00
14041;BME280;7095;51.388;6.196;2023-03-03T02:14:40;79638.84;;;-145.32;100.00
14041;BME280;7095;51.388;6.196;2023-03-03T02:17:09;79638.84;;;-145.32;100.00
14041;BME280;7095;51.388;6.196;2023-03-03T02:19:45;79638.84;;;-145.32;100.00
14041;BME280;7095;51.388;6.196;2023-03-03T02:22:16;79382.44;;;-145.32;100.00
14041;BME280;7095;51.388;6.196;2023-03-03T02:24:51;78869.66;;;-145.32;100.00
14041;BME280;7095;51.388;6.196;2023-03-03T02:27:22;79382.44;;;-145.32;100.00
14041;BME280;7095;51.388;6.196;2023-03-03T02:29:51;79638.84;;;-145.32;100.00
14041;BME280;7095;51.388;6.196;2023-03-03T02:32:20;79895.28;;;-145.32;100.00
14041;BME280;7095;51.388;6.196;2023-03-03T02:34:49;79638.84;;;-145.32;100.00
14041;BME280;7095;51.388;6.196;2023-03-03T02:37:19;79638.84;;;-145.32;100.00
14041;BME280;7095;51.388;6.196;2023-03-03T02:39:47;79895.28;;;-145.32;100.00
14041;BME280;7095;51.388;6.196;2023-03-03T02:42:18;79895.28;;;-145.32;100.00
14041;BME280;7095;51.388;6.196;2023-03-03T02:44:54;79895.28;;;-145.32;100.00
14041;BME280;7095;51.388;6.196;2023-03-03T02:47:23;80408.22;;;-145.32;100.00
14041;BME280;7095;51.388;6.196;2023-03-03T02:49:53;80151.75;;;-145.32;100.00
14041;BME280;7095;51.388;6.196;2023-03-03T02:52:22;80151.75;;;-145.32;100.00
14041;BME280;7095;51.388;6.196;2023-03-03T02:54:51;79895.28;;;-145.32;100.00
14041;BME280;7095;51.388;6.196;2023-03-03T02:57:20;79895.28;;;-145.32;100.00
14041;BME280;7095;51.388;6.196;2023-03-03T02:59:50;79895.28;;;-145.32;100.00
14041;BME280;7095;51.388;6.196;2023-03-03T03:02:21;79382.44;;;-145.32;100.00
14041;BME280;7095;51.388;6.196;2023-03-03T03:04:49;79382.44;;;-145.32;100.00
14041;BME280;7095;51.388;6.196;2023-03-03T03:07:21;79638.84;;;-145.32;100.00
14041;BME280;7095;51.388;6.196;2023-03-03T03:09:50;79126.03;;;-145.32;100.00
14041;BME280;7095;51.388;6.196;2023-03-03T03:12:20;79126.03;;;-145.32;100.00
14041;BME280;7095;51.388;6.196;2023-03-03T03:14:52;79638.84;;;-145.32;100.00
14041;BME280;7095;51.388;6.196;2023-03-03T03:17:24;79895.28;;;-145.32;100.00
14041;BME280;7095;51.388;6.196;2023-03-03T03:19:53;79895.28;;;-145.32;100.00
14041;BME280;7095;51.388;6.196;2023-03-03T03:22:22;79638.84;;;-145.32;100.00
14041;BME280;7095;51.388;6.196;2023-03-03T03:24:50;79638.84;;;-145.32;100.00
14041;BME280;7095;51.388;6.196;2023-03-03T03:27:18;79895.28;;;-145.32;100.00
14041;BME280;7095;51.388;6.196;2023-03-03T03:29:50;79382.44;;;-145.32;100.00
14041;BME280;7095;51.388;6.196;2023-03-03T03:32:19;79638.84;;;-145.32;100.00
14041;BME280;7095;51.388;6.196;2023-03-03T03:34:49;79895.28;;;-145.32;100.00
14041;BME280;7095;51.388;6.196;2023-03-03T03:37:18;79895.28;;;-145.32;100.00
14041;BME280;7095;51.388;6.196;2023-03-03T03:39:47;79895.28;;;-145.32;100.00
14041;BME280;7095;51.388;6.196;2023-03-03T03:42:17;80151.75;;;-145.32;100.00
14041;BME280;7095;51.388;6.196;2023-03-03T03:44:46;79638.84;;;-145.32;100.00
14041;BME280;7095;51.388;6.196;2023-03-03T03:47:15;79382.44;;;-145.32;100.00
14041;BME280;7095;51.388;6.196;2023-03-03T03:49:44;79382.44;;;-145.32;100.00
14041;BME280;7095;51.388;6.196;2023-03-03T03:52:14;79382.44;;;-145.32;100.00
14041;BME280;7095;51.388;6.196;2023-03-03T03:54:43;78869.66;;;-145.32;100.00
14041;BME280;7095;51.388;6.196;2023-03-03T03:57:11;79126.03;;;-145.32;100.00
14041;BME280;7095;51.388;6.196;2023-03-03T03:59:40;79126.03;;;-145.32;100.00
14041;BME280;7095;51.388;6.196;2023-03-03T04:02:09;79126.03;;;-145.32;100.00
14041;BME280;7095;51.388;6.196;2023-03-03T04:04:38;79382.44;;;-145.32;100.00
14041;BME280;7095;51.388;6.196;2023-03-03T04:07:06;79638.84;;;-145.32;100.00
14041;BME280;7095;51.388;6.196;2023-03-03T04:09:39;79382.44;;;-145.32;100.00
14041;BME280;7095;51.388;6.196;2023-03-03T04:12:08;79126.03;;;-145.32;100.00
14041;BME280;7095;51.388;6.196;2023-03-03T04:14:37;78869.66;;;-145.32;100.00
14041;BME280;7095;51.388;6.196;2023-03-03T04:17:05;78869.66;;;-145.32;100.00
14041;BME280;7095;51.388;6.196;2023-03-03T04:19:37;78869.66;;;-145.32;100.00
14041;BME280;7095;51.388;6.196;2023-03-03T04:22:05;79126.03;;;-145.32;100.00
14041;BME280;7095;51.388;6.196;2023-03-03T04:24:34;78869.66;;;-145.32;100.00
14041;BME280;7095;51.388;6.196;2023-03-03T04:27:05;79382.44;;;-145.32;100.00
14041;BME280;7095;51.388;6.196;2023-03-03T04:29:35;79638.84;;;-145.32;100.00
14041;BME280;7095;51.388;6.196;2023-03-03T04:32:04;79638.84;;;-145.32;100.00
14041;BME280;7095;51.388;6.196;2023-03-03T04:34:33;79638.84;;;-145.32;100.00
14041;BME280;7095;51.388;6.196;2023-03-03T04:37:02;79382.44;;;-145.32;100.00
14041;BME280;7095;51.388;6.196;2023-03-03T04:39:31;79126.03;;;-145.32;100.00
14041;BME280;7095;51.388;6.196;2023-03-03T04:41:59;79126.03;;;-145.32;100.00
14041;BME280;7095;51.388;6.196;2023-03-03T04:44:30;78869.66;;;-145.32;100.00
14041;BME280;7095;51.388;6.196;2023-03-03T04:46:58;79126.03;;;-145.32;100.00
14041;BME280;7095;51.388;6.196;2023-03-03T04:49:27;79126.03;;;-145.32;100.00
14041;BME280;7095;51.388;6.196;2023-03-03T04:51:57;79126.03;;;-145.32;100.00
14041;BME280;7095;51.388;6.196;2023-03-03T04:54:26;79126.03;;;-145.32;100.00
14041;BME280;7095;51.388;6.196;2023-03-03T04:56:55;79382.44;;;-145.32;100.00
14041;BME280;7095;51.388;6.196;2023-03-03T04:59:24;79895.28;;;-145.32;100.00
14041;BME280;7095;51.388;6.196;2023-03-03T05:01:54;80151.75;;;-145.32;100.00
14041;BME280;7095;51.388;6.196;2023-03-03T05:04:24;79895.28;;;-145.32;100.00
14041;BME280;7095;51.388;6.196;2023-03-03T05:06:53;79895.28;;;-145.32;100.00
14041;BME280;7095;51.388;6.196;2023-03-03T05:09:23;79638.84;;;-145.32;100.00
14041;BME280;7095;51.388;6.196;2023-03-03T05:11:51;79638.84;;;-145.32;100.00
14041;BME280;7095;51.388;6.196;2023-03-03T05:14:20;79895.28;;;-145.32;100.00
14041;BME280;7095;51.388;6.196;2023-03-03T05:16:49;79895.28;;;-145.32;100.00
14041;BME280;7095;51.388;6.196;2023-03-03T05:19:19;79382.44;;;-145.32;100.00
14041;BME280;7095;51.388;6.196;2023-03-03T05:21:48;79638.84;;;-145.32;100.00
14041;BME280;7095;51.388;6.196;2023-03-03T05:24:17;79382.44;;;-145.32;100.00
14041;BME280;7095;51.388;6.196;2023-03-03T05:26:46;79126.03;;;-145.32;100.00
14041;BME280;7095;51.388;6.196;2023-03-03T05:29:14;78869.66;;;-145.32;100.00
14041;BME280;7095;51.388;6.196;2023-03-03T05:31:43;78869.66;;;-145.32;100.00
14041;BME280;7095;51.388;6.196;2023-03-03T05:34:12;79126.03;;;-145.32;100.00
14041;BME280;7095;51.388;6.196;2023-03-03T05:36:41;78613.28;;;-145.32;100.00
14041;BME280;7095;51.388;6.196;2023-03-03T05:39:10;78100.63;;;-145.32;100.00
14041;BME280;7095;51.388;6.196;2023-03-03T05:41:38;78100.63;;;-145.32;100.00
14041;BME280;7095;51.388;6.196;2023-03-03T05:44:07;77844.31;;;-145.32;100.00
14041;BME280;7095;51.388;6.196;2023-03-03T05:46:36;77844.31;;;-145.32;100.00
14041;BME280;7095;51.388;6.196;2023-03-03T05:49:04;78100.63;;;-145.32;100.00
14041;BME280;7095;51.388;6.196;2023-03-03T05:51:33;77844.31;;;-145.32;100.00
14041;BME280;7095;51.388;6.196;2023-03-03T05:54:03;78100.63;;;-145.32;100.00
14041;BME280;7095;51.388;6.196;2023-03-03T05:56:31;78356.94;;;-145.32;100.00
14041;BME280;7095;51.388;6.196;2023-03-03T05:59:00;79126.03;;;-145.32;100.00
14041;BME280;7095;51.388;6.196;2023-03-03T06:01:28;79382.44;;;-145.32;100.00
14041;BME280;7095;51.388;6.196;2023-03-03T06:03:57;78356.94;;;-145.32;100.00
14041;BME280;7095;51.388;6.196;2023-03-03T06:06:28;78100.63;;;-145.32;100.00
14041;BME280;7095;51.388;6.196;2023-03-03T06:08:57;78100.63;;;-145.32;100.00
14041;BME280;7095;51.388;6.196;2023-03-03T06:11:27;77331.78;;;-145.32;100.00
14041;BME280;7095;51.388;6.196;2023-03-03T06:13:55;77075.53;;;-145.32;100.00
14041;BME280;7095;51.388;6.196;2023-03-03T06:16:23;76819.28;;;-145.32;100.00
14041;BME280;7095;51.388;6.196;2023-03-03T06:18:52;76563.09;;;-145.32;100.00
14041;BME280;7095;51.388;6.196;2023-03-03T06:21:20;76563.09;;;-145.32;100.00
14041;BME280;7095;51.388;6.196;2023-03-03T06:23:49;76819.28;;;-145.32;100.00
14041;BME280;7095;51.388;6.196;2023-03-03T06:26:17;77331.78;;;-145.32;100.00
14041;BME280;7095;51.388;6.196;2023-03-03T06:28:47;77331.78;;;-145.32;100.00
14041;BME280;7095;51.388;6.196;2023-03-03T06:31:16;75794.56;;;-145.32;100.00
14041;BME280;7095;51.388;6.196;2023-03-03T06:33:44;75282.31;;;-145.32;100.00
14041;BME280;7095;51.388;6.196;2023-03-03T06:36:12;75538.44;;;-145.32;100.00
14041;BME280;7095;51.388;6.196;2023-03-03T06:38:41;75026.22;;;-145.32;100.00
14041;BME280;7095;51.388;6.196;2023-03-03T06:41:09;75282.31;;;-145.32;100.00
14041;BME280;7095;51.388;6.196;2023-03-03T06:43:38;75026.22;;;-145.32;100.00
14041;BME280;7095;51.388;6.196;2023-03-03T06:46:08;74258.06;;;-145.32;100.00
14041;BME280;7095;51.388;6.196;2023-03-03T06:48:36;73490.06;;;-145.32;100.00
14041;BME280;7095;51.388;6.196;2023-03-03T06:51:19;74002.03;;;-145.32;100.00
14041;BME280;7095;51.388;6.196;2023-03-03T06:53:53;74002.03;;;-145.32;100.00
14041;BME280;7095;51.388;6.196;2023-03-03T06:56:23;72722.25;;;-145.32;100.00
14041;BME280;7095;51.388;6.196;2023-03-03T06:58:53;71698.75;;;-145.32;100.00
14041;BME280;7095;51.388;6.196;2023-03-03T07:01:25;71187.13;;;-145.32;100.00
14041;BME280;7095;51.388;6.196;2023-03-03T07:03:55;71187.13;;;-145.32;100.00
14041;BME280;7095;51.388;6.196;2023-03-03T07:06:25;70931.31;;;-145.32;100.00
14041;BME280;7095;51.388;6.196;2023-03-03T07:08:54;69908.38;;;-145.32;100.00
14041;BME280;7095;51.388;6.196;2023-03-03T07:11:23;69840.44;;;-145.32;100.00
14041;BME280;7095;51.388;6.196;2023-03-03T07:13:54;69077.44;;;-145.32;100.00
14041;BME280;7095;51.388;6.196;2023-03-03T07:16:26;68210.78;;;-145.32;100.00
14041;BME280;7095;51.388;6.196;2023-03-03T07:19:01;68268.66;;;-145.32;100.00
14041;BME280;7095;51.388;6.196;2023-03-03T07:21:33;67068.84;;;-145.32;100.00
14041;BME280;7095;51.388;6.196;2023-03-03T07:24:14;67432.16;;;-145.32;100.00
14041;BME280;7095;51.388;6.196;2023-03-03T07:26:46;66272.53;;;-145.32;100.00
14041;BME280;7095;51.388;6.196;2023-03-03T07:29:20;66581.88;;;-145.32;100.00
14041;BME280;7095;51.388;6.196;2023-03-03T07:32:00;66727.56;;;-145.32;100.00
14041;BME280;7095;51.388;6.196;2023-03-03T07:34:34;66585.84;;;-145.32;100.00
14041;BME280;7095;51.388;6.196;2023-03-03T07:37:12;65426.53;;;-145.32;100.00
14041;BME280;7095;51.388;6.196;2023-03-03T07:39:45;63394.19;;;-145.32;100.00
14041;BME280;7095;51.388;6.196;2023-03-03T07:42:20;64417.19;;;-145.32;100.00
14041;BME280;7095;51.388;6.196;2023-03-03T07:44:59;64834.06;;;-145.32;100.00
14041;BME280;7095;51.388;6.196;2023-03-03T07:47:30;63866.75;;;-145.32;100.00
14041;BME280;7095;51.388;6.196;2023-03-03T07:50:12;64373.31;;;-145.32;100.00
14041;BME280;7095;51.388;6.196;2023-03-03T07:52:42;64010.34;;;-145.32;100.00
14041;BME280;7095;51.388;6.196;2023-03-03T07:55:29;63585.59;;;-145.32;100.00
14041;BME280;7095;51.388;6.196;2023-03-03T07:58:16;63240.66;;;-145.32;100.00
14041;BME280;7095;51.388;6.196;2023-03-03T08:01:23;61576.25;;;-145.32;100.00
14041;BME280;7095;51.388;6.196;2023-03-03T08:03:57;61785.50;;;-145.32;100.00
14041;BME280;7095;51.388;6.196;2023-03-03T08:06:44;61763.59;;;-145.32;100.00
14041;BME280;7095;51.388;6.196;2023-03-03T08:09:42;61648.00;;;-145.32;100.00
14041;BME280;7095;51.388;6.196;2023-03-03T08:12:39;61859.25;;;-145.32;100.00
14041;BME280;7095;51.388;6.196;2023-03-03T08:15:23;62054.56;;;-145.32;100.00
14041;BME280;7095;51.388;6.196;2023-03-03T08:17:53;62002.75;;;-145.32;100.00
14041;BME280;7095;51.388;6.196;2023-03-03T08:20:45;63017.38;;;-145.32;100.00
14041;BME280;7095;51.388;6.196;2023-03-03T08:23:17;61365.03;;;-145.32;100.00
14041;BME280;7095;51.388;6.196;2023-03-03T08:25:50;61436.78;;;-145.32;100.00
14041;BME280;7095;51.388;6.196;2023-03-03T08:28:20;60978.47;;;-145.32;100.00
14041;BME280;7095;51.388;6.196;2023-03-03T08:30:50;61650.00;;;-145.32;100.00
14041;BME280;7095;51.388;6.196;2023-03-03T08:33:31;61552.34;;;-145.32;100.00
14041;BME280;7095;51.388;6.196;2023-03-03T08:36:01;61570.28;;;-145.32;100.00
14041;BME280;7095;51.388;6.196;2023-03-03T08:38:31;61566.31;;;-145.32;100.00
14041;BME280;7095;51.388;6.196;2023-03-03T08:40:59;60958.56;;;-145.32;100.00
14041;BME280;7095;51.388;6.196;2023-03-03T08:43:28;60623.84;;;-145.32;100.00
14041;BME280;7095;51.388;6.196;2023-03-03T08:45:59;60384.78;;;-145.32;100.00
14041;BME280;7095;51.388;6.196;2023-03-03T08:48:28;60512.28;;;-145.32;100.00
14041;BME280;7095;51.388;6.196;2023-03-03T08:50:57;60665.69;;;-145.32;100.00
14041;BME280;7095;51.388;6.196;2023-03-03T08:53:30;60747.38;;;-145.32;100.00
14041;BME280;7095;51.388;6.196;2023-03-03T08:56:00;59839.00;;;-145.32;100.00
14041;BME280;7095;51.388;6.196;2023-03-03T08:58:29;59942.56;;;-145.32;100.00
14041;BME280;7095;51.388;6.196;2023-03-03T09:01:02;59159.84;;;-145.32;100.00
14041;BME280;7095;51.388;6.196;2023-03-03T09:03:31;59388.88;;;-145.32;100.00
14041;BME280;7095;51.388;6.196;2023-03-03T09:06:00;59767.28;;;-145.32;100.00
14041;BME280;7095;51.388;6.196;2023-03-03T09:08:30;60105.91;;;-145.32;100.00
14041;BME280;7095;51.388;6.196;2023-03-03T09:10:58;59456.59;;;-145.32;100.00
14041;BME280;7095;51.388;6.196;2023-03-03T09:13:28;59954.50;;;-145.32;100.00
14041;BME280;7095;51.388;6.196;2023-03-03T09:15:57;59807.13;;;-145.32;100.00
14041;BME280;7095;51.388;6.196;2023-03-03T09:18:30;59932.59;;;-145.32;100.00
14041;BME280;7095;51.388;6.196;2023-03-03T09:20:59;59675.66;;;-145.32;100.00
14041;BME280;7095;51.388;6.196;2023-03-03T09:23:32;59552.19;;;-145.32;100.00
14041;BME280;7095;51.388;6.196;2023-03-03T09:26:18;59269.38;;;-145.32;100.00
14041;BME280;7095;51.388;6.196;2023-03-03T09:28:48;59476.50;;;-145.32;100.00
14041;BME280;7095;51.388;6.196;2023-03-03T09:31:24;59110.06;;;-145.32;100.00
14041;BME280;7095;51.388;6.196;2023-03-03T09:33:53;58572.44;;;-145.32;100.00
14041;BME280;7095;51.388;6.196;2023-03-03T09:36:27;58662.06;;;-145.32;100.00
14041;BME280;7095;51.388;6.196;2023-03-03T09:38:58;58554.53;;;-145.32;100.00
14041;BME280;7095;51.388;6.196;2023-03-03T09:45:03;57949.31;;;-145.32;100.00
14041;BME280;7095;51.388;6.196;2023-03-03T09:48:07;58198.16;;;-145.32;100.00
14041;BME280;7095;51.388;6.196;2023-03-03T09:50:47;58226.03;;;-145.32;100.00
14041;BME280;7095;51.388;6.196;2023-03-03T09:53:33;58458.97;;;-145.32;100.00
14041;BME280;7095;51.388;6.196;2023-03-03T09:56:08;58180.25;;;-145.32;100.00
14041;BME280;7095;51.388;6.196;2023-03-03T09:58:56;58152.38;;;-145.32;100.00
14041;BME280;7095;51.388;6.196;2023-03-03T10:01:39;58234.00;;;-145.32;100.00
14041;BME280;7095;51.388;6.196;2023-03-03T10:04:22;57702.47;;;-145.32;100.00
14041;BME280;7095;51.388;6.196;2023-03-03T10:06:57;57971.22;;;-145.32;100.00
14041;BME280;7095;51.388;6.196;2023-03-03T10:09:49;57543.25;;;-145.32;100.00
14041;BME280;7095;51.388;6.196;2023-03-03T10:12:26;56892.44;;;-145.32;100.00
14041;BME280;7095;51.388;6.196;2023-03-03T10:15:05;57190.97;;;-145.32;100.00
14041;BME280;7095;51.388;6.196;2023-03-03T10:17:46;56993.94;;;-145.32;100.00
14041;BME280;7095;51.388;6.196;2023-03-03T10:20:29;56878.50;;;-145.32;100.00
14041;BME280;7095;51.388;6.196;2023-03-03T10:23:20;57023.78;;;-145.32;100.00
14041;BME280;7095;51.388;6.196;2023-03-03T10:25:59;56970.03;;;-145.32;100.00
14041;BME280;7095;51.388;6.196;2023-03-03T10:31:44;56894.44;;;-145.32;100.00
14041;BME280;7095;51.388;6.196;2023-03-03T10:34:28;56585.97;;;-145.32;100.00
14041;BME280;7095;51.388;6.196;2023-03-03T10:37:07;56615.81;;;-145.32;100.00
14041;BME280;7095;51.388;6.196;2023-03-03T10:39:51;56196.00;;;-145.32;100.00
14041;BME280;7095;51.388;6.196;2023-03-03T10:42:39;56166.16;;;-145.32;100.00
14041;BME280;7095;51.388;6.196;2023-03-03T10:45:41;56184.06;;;-145.32;100.00
14041;BME280;7095;51.388;6.196;2023-03-03T10:48:24;56003.00;;;-145.32;100.00
14041;BME280;7095;51.388;6.196;2023-03-03T10:51:06;55937.34;;;-145.32;100.00
14041;BME280;7095;51.388;6.196;2023-03-03T10:53:44;55762.28;;;-145.32;100.00
14041;BME280;7095;51.388;6.196;2023-03-03T10:56:27;55740.38;;;-145.32;100.00
14041;BME280;7095;51.388;6.196;2023-03-03T10:59:35;55613.06;;;-145.32;100.00
14041;BME280;7095;51.388;6.196;2023-03-03T11:02:14;55515.59;;;-145.32;100.00
14041;BME280;7095;51.388;6.196;2023-03-03T11:05:03;55501.66;;;-145.32;100.00
14041;BME280;7095;51.388;6.196;2023-03-03T11:07:39;55416.13;;;-145.32;100.00
14041;BME280;7095;51.388;6.196;2023-03-03T11:10:26;55209.25;;;-145.32;100.00
14041;BME280;7095;51.388;6.196;2023-03-03T11:13:02;55260.97;;;-145.32;100.00
14041;BME280;7095;51.388;6.196;2023-03-03T11:15:46;55181.41;;;-145.32;100.00
14041;BME280;7095;51.388;6.196;2023-03-03T11:18:31;55121.75;;;-145.32;100.00
14041;BME280;7095;51.388;6.196;2023-03-03T11:21:08;55064.06;;;-145.32;100.00
14041;BME280;7095;51.388;6.196;2023-03-03T11:29:50;54845.28;;;-145.32;100.00
14041;BME280;7095;51.388;6.196;2023-03-03T11:32:31;54881.09;;;-145.32;100.00
14041;BME280;7095;51.388;6.196;2023-03-03T11:35:22;54735.91;;;-145.32;100.00
14041;BME280;7095;51.388;6.196;2023-03-03T11:38:05;54867.16;;;-145.32;100.00
14041;BME280;7095;51.388;6.196;2023-03-03T11:40:42;54731.94;;;-145.32;100.00
14041;BME280;7095;51.388;6.196;2023-03-03T11:43:17;54753.81;;;-145.32;100.00
14041;BME280;7095;51.388;6.196;2023-03-03T11:46:05;54696.13;;;-145.32;100.00
14041;BME280;7095;51.388;6.196;2023-03-03T11:48:42;54636.47;;;-145.32;100.00
14041;BME280;7095;51.388;6.196;2023-03-03T11:51:19;54759.78;;;-145.32;100.00
14041;BME280;7095;51.388;6.196;2023-03-03T11:54:11;54640.44;;;-145.32;100.00
14041;BME280;7095;51.388;6.196;2023-03-03T11:56:44;54612.59;;;-145.32;100.00
14041;BME280;7095;51.388;6.196;2023-03-03T11:59:30;54638.44;;;-145.32;100.00
14041;BME280;7095;51.388;6.196;2023-03-03T12:02:29;54560.91;;;-145.32;100.00
14041;BME280;7095;51.388;6.196;2023-03-03T12:05:07;54515.16;;;-145.32;100.00
14041;BME280;7095;51.388;6.196;2023-03-03T12:07:43;54517.16;;;-145.32;100.00
14041;BME280;7095;51.388;6.196;2023-03-03T12:10:23;54546.97;;;-145.32;100.00
14041;BME280;7095;51.388;6.196;2023-03-03T12:13:02;54616.56;;;-145.32;100.00
14041;BME280;7095;51.388;6.196;2023-03-03T12:15:36;54552.94;;;-145.32;100.00
14041;BME280;7095;51.388;6.196;2023-03-03T12:18:36;54477.38;;;-145.32;100.00
14041;BME280;7095;51.388;6.196;2023-03-03T12:21:38;54455.50;;;-145.32;100.00
14041;BME280;7095;51.388;6.196;2023-03-03T12:24:23;54433.63;;;-145.32;100.00
14041;BME280;7095;51.388;6.196;2023-03-03T12:27:08;54397.81;;;-145.32;100.00
14041;BME280;7095;51.388;6.196;2023-03-03T12:29:42;54411.75;;;-145.32;100.00
14041;BME280;7095;51.388;6.196;2023-03-03T12:32:25;54344.13;;;-145.32;100.00
14041;BME280;7095;51.388;6.196;2023-03-03T12:35:02;54330.22;;;-145.32;100.00
14041;BME280;7095;51.388;6.196;2023-03-03T12:37:46;54346.13;;;-145.32;100.00
14041;BME280;7095;51.388;6.196;2023-03-03T12:40:18;54326.25;;;-145.32;100.00
14041;BME280;7095;51.388;6.196;2023-03-03T12:43:05;54290.44;;;-145.32;100.00
14041;BME280;7095;51.388;6.196;2023-03-03T12:45:45;54306.34;;;-145.32;100.00
14041;BME280;7095;51.388;6.196;2023-03-03T12:48:24;54302.38;;;-145.32;100.00
14041;BME280;7095;51.388;6.196;2023-03-03T12:51:01;54266.59;;;-145.32;100.00
14041;BME280;7095;51.388;6.196;2023-03-03T12:53:51;54202.94;;;-145.32;100.00
14041;BME280;7095;51.388;6.196;2023-03-03T12:56:29;54250.69;;;-145.32;100.00
14041;BME280;7095;51.388;6.196;2023-03-03T12:59:06;54222.84;;;-145.32;100.00
14041;BME280;7095;51.388;6.196;2023-03-03T13:01:52;54163.19;;;-145.32;100.00
14041;BME280;7095;51.388;6.196;2023-03-03T13:04:34;54099.56;;;-145.32;100.00
14041;BME280;7095;51.388;6.196;2023-03-03T13:07:09;54071.72;;;-145.32;100.00
14041;BME280;7095;51.388;6.196;2023-03-03T13:09:53;54049.84;;;-145.32;100.00
14041;BME280;7095;51.388;6.196;2023-03-03T13:12:33;54035.91;;;-145.32;100.00
14041;BME280;7095;51.388;6.196;2023-03-03T13:15:11;53990.19;;;-145.32;100.00
14041;BME280;7095;51.388;6.196;2023-03-03T13:17:51;53962.34;;;-145.32;100.00
14041;BME280;7095;51.388;6.196;2023-03-03T13:20:33;53936.50;;;-145.32;100.00
14041;BME280;7095;51.388;6.196;2023-03-03T13:23:07;53904.69;;;-145.32;100.00
14041;BME280;7095;51.388;6.196;2023-03-03T13:25:56;53888.78;;;-145.32;100.00
14041;BME280;7095;51.388;6.196;2023-03-03T13:28:30;53906.69;;;-145.32;100.00
14041;BME280;7095;51.388;6.196;2023-03-03T13:31:10;53811.25;;;-145.32;100.00